createdAt,value
2024-03-16T00:00:35.959Z,431.00
2024-03-16T00:01:28.587Z,431.00
2024-03-16T00:02:23.876Z,432.00
2024-03-16T00:03:18.907Z,429.00
2024-03-16T00:04:14.179Z,433.00
2024-03-16T00:05:09.264Z,426.00
2024-03-16T00:06:04.315Z,427.00
2024-03-16T00:06:59.458Z,434.00
2024-03-16T00:07:54.806Z,431.00
2024-03-16T00:08:49.782Z,431.00
2024-03-16T00:09:44.831Z,437.00
2024-03-16T00:10:40.086Z,427.00
2024-03-16T00:11:35.143Z,427.00
2024-03-16T00:12:30.616Z,430.00
2024-03-16T00:13:25.612Z,427.00
2024-03-16T00:14:20.618Z,425.00
2024-03-16T00:15:15.687Z,428.00
2024-03-16T00:16:10.913Z,433.00
2024-03-16T00:17:06.904Z,433.00
2024-03-16T00:18:01.421Z,434.00
2024-03-16T00:18:56.739Z,428.00
2024-03-16T00:19:51.849Z,436.00
2024-03-16T00:20:46.901Z,433.00
2024-03-16T00:21:42.076Z,434.00
2024-03-16T00:22:37.028Z,427.00
2024-03-16T00:23:32.272Z,420.00
2024-03-16T00:24:27.655Z,427.00
2024-03-16T00:25:22.972Z,430.00
2024-03-16T00:26:18.030Z,433.00
2024-03-16T00:27:13.164Z,425.00
2024-03-16T00:28:08.365Z,437.00
2024-03-16T00:29:03.676Z,427.00
2024-03-16T00:29:58.693Z,431.00
2024-03-16T00:30:54.048Z,427.00
2024-03-16T00:31:48.961Z,426.00
2024-03-16T00:32:44.223Z,427.00
2024-03-16T00:33:39.816Z,422.00
2024-03-16T00:34:34.652Z,429.00
2024-03-16T00:35:29.833Z,432.00
2024-03-16T00:36:25.155Z,430.00
2024-03-16T00:37:20.243Z,429.00
2024-03-16T00:38:15.527Z,432.00
2024-03-16T00:39:10.740Z,433.00
2024-03-16T00:40:05.886Z,429.00
2024-03-16T00:41:00.852Z,429.00
2024-03-16T00:41:56.109Z,432.00
2024-03-16T00:42:51.187Z,429.00
2024-03-16T00:43:46.567Z,427.00
2024-03-16T00:44:41.499Z,428.00
2024-03-16T00:45:36.671Z,430.00
2024-03-16T00:46:31.962Z,423.00
2024-03-16T00:47:27.179Z,432.00
2024-03-16T00:48:22.764Z,430.00
2024-03-16T00:49:17.976Z,427.00
2024-03-16T00:50:13.088Z,428.00
2024-03-16T00:51:08.173Z,427.00
2024-03-16T00:52:03.409Z,425.00
2024-03-16T00:52:58.446Z,429.00
2024-03-16T00:53:53.838Z,424.00
2024-03-16T00:54:48.920Z,423.00
2024-03-16T00:55:44.117Z,427.00
2024-03-16T00:56:39.369Z,421.00
2024-03-16T00:57:35.851Z,431.00
2024-03-16T00:58:30.002Z,435.00
2024-03-16T00:59:25.208Z,424.00
2024-03-16T01:00:20.330Z,428.00
2024-03-16T01:01:15.711Z,423.00
2024-03-16T01:02:10.917Z,426.00
2024-03-16T01:03:05.902Z,422.00
2024-03-16T01:04:01.300Z,419.00
2024-03-16T01:04:56.507Z,425.00
2024-03-16T01:05:51.778Z,427.00
2024-03-16T01:06:46.760Z,428.00
2024-03-16T01:07:42.362Z,432.00
2024-03-16T01:08:37.689Z,432.00
2024-03-16T01:09:33.175Z,425.00
2024-03-16T01:10:28.229Z,427.00
2024-03-16T01:11:23.523Z,425.00
2024-03-16T01:12:18.499Z,422.00
2024-03-16T01:13:13.649Z,423.00
2024-03-16T01:14:08.761Z,425.00
2024-03-16T01:15:04.109Z,422.00
2024-03-16T01:15:59.621Z,417.00
2024-03-16T01:16:54.938Z,423.00
2024-03-16T01:17:50.224Z,424.00
2024-03-16T01:18:45.498Z,419.00
2024-03-16T01:19:40.937Z,418.00
2024-03-16T01:20:36.166Z,417.00
2024-03-16T01:21:31.301Z,420.00
2024-03-16T01:22:26.726Z,419.00
2024-03-16T01:23:22.133Z,423.00
2024-03-16T01:24:17.791Z,413.00
2024-03-16T01:25:12.868Z,420.00
2024-03-16T01:26:08.321Z,418.00
2024-03-16T01:27:03.465Z,422.00
2024-03-16T01:27:58.984Z,419.00
2024-03-16T01:28:54.530Z,415.00
2024-03-16T01:29:49.622Z,421.00
2024-03-16T01:30:44.638Z,417.00
2024-03-16T01:31:39.711Z,425.00
2024-03-16T01:32:35.010Z,412.00
2024-03-16T01:33:30.497Z,421.00
2024-03-16T01:34:25.562Z,413.00
2024-03-16T01:35:20.527Z,424.00
2024-03-16T01:36:15.600Z,424.00
2024-03-16T01:37:11.029Z,421.00
2024-03-16T01:38:05.931Z,421.00
2024-03-16T01:39:01.417Z,416.00
2024-03-16T01:39:56.991Z,416.00
2024-03-16T01:40:51.908Z,417.00
2024-03-16T01:41:46.991Z,413.00
2024-03-16T01:42:42.287Z,413.00
2024-03-16T01:43:37.485Z,417.00
2024-03-16T01:44:32.616Z,418.00
2024-03-16T01:45:28.141Z,419.00
2024-03-16T01:46:23.353Z,421.00
2024-03-16T01:47:18.473Z,411.00
2024-03-16T01:48:14.654Z,419.00
2024-03-16T01:49:09.421Z,410.00
2024-03-16T01:50:03.960Z,416.00
2024-03-16T01:50:59.009Z,414.00
2024-03-16T01:51:54.201Z,417.00
2024-03-16T01:52:49.531Z,414.00
2024-03-16T01:53:44.631Z,415.00
2024-03-16T01:54:39.715Z,421.00
2024-03-16T01:55:34.772Z,416.00
2024-03-16T01:56:30.645Z,415.00
2024-03-16T01:57:25.026Z,417.00
2024-03-16T01:58:19.989Z,413.00
2024-03-16T01:59:15.143Z,415.00
2024-03-16T02:00:10.142Z,418.00
2024-03-16T02:01:05.283Z,420.00
2024-03-16T02:02:00.393Z,421.00
2024-03-16T02:02:55.336Z,418.00
2024-03-16T02:03:50.672Z,419.00
2024-03-16T02:04:45.515Z,413.00
2024-03-16T02:05:40.611Z,410.00
2024-03-16T02:06:35.626Z,415.00
2024-03-16T02:07:30.746Z,420.00
2024-03-16T02:08:26.282Z,416.00
2024-03-16T02:09:23.818Z,419.00
2024-03-16T02:10:18.076Z,416.00
2024-03-16T02:11:13.070Z,415.00
2024-03-16T02:12:08.011Z,422.00
2024-03-16T02:13:03.179Z,424.00
2024-03-16T02:13:58.083Z,423.00
2024-03-16T02:14:53.366Z,417.00
2024-03-16T02:15:48.242Z,420.00
2024-03-16T02:16:43.342Z,417.00
2024-03-16T02:17:38.427Z,418.00
2024-03-16T02:18:34.529Z,422.00
2024-03-16T02:19:29.761Z,416.00
2024-03-16T02:20:25.717Z,412.00
2024-03-16T02:21:20.806Z,417.00
2024-03-16T02:22:16.438Z,417.00
2024-03-16T02:23:12.043Z,419.00
2024-03-16T02:24:07.161Z,417.00
2024-03-16T02:25:02.978Z,416.00
2024-03-16T02:25:58.340Z,413.00
2024-03-16T02:26:53.637Z,417.00
2024-03-16T02:27:49.391Z,413.00
2024-03-16T02:28:44.823Z,416.00
2024-03-16T02:29:40.478Z,413.00
2024-03-16T02:30:36.229Z,414.00
2024-03-16T02:31:31.341Z,416.00
2024-03-16T02:32:27.362Z,420.00
2024-03-16T02:33:22.561Z,413.00
2024-03-16T02:34:17.630Z,421.00
2024-03-16T02:35:13.940Z,417.00
2024-03-16T02:36:08.842Z,418.00
2024-03-16T02:37:04.725Z,416.00
2024-03-16T02:38:00.098Z,414.00
2024-03-16T02:38:55.145Z,416.00
2024-03-16T02:39:51.024Z,416.00
2024-03-16T02:40:46.401Z,417.00
2024-03-16T02:41:41.493Z,419.00
2024-03-16T02:42:38.119Z,414.00
2024-03-16T02:43:33.392Z,425.00
2024-03-16T02:44:29.282Z,417.00
2024-03-16T02:45:24.372Z,421.00
2024-03-16T02:46:19.671Z,420.00
2024-03-16T02:47:15.392Z,413.00
2024-03-16T02:48:10.854Z,415.00
2024-03-16T02:49:07.219Z,415.00
2024-03-16T02:50:02.090Z,418.00
2024-03-16T02:50:57.184Z,417.00
2024-03-16T02:51:53.189Z,417.00
2024-03-16T02:52:48.534Z,417.00
2024-03-16T02:53:43.849Z,415.00
2024-03-16T02:54:39.992Z,416.00
2024-03-16T02:55:35.094Z,419.00
2024-03-16T02:56:31.154Z,417.00
2024-03-16T02:57:26.253Z,417.00
2024-03-16T02:58:21.531Z,415.00
2024-03-16T02:59:17.462Z,423.00
2024-03-16T03:00:12.895Z,418.00
2024-03-16T03:01:08.136Z,418.00
2024-03-16T03:02:03.181Z,424.00
2024-03-16T03:02:59.502Z,420.00
2024-03-16T03:03:54.649Z,411.00
2024-03-16T03:04:49.945Z,422.00
2024-03-16T03:05:45.749Z,420.00
2024-03-16T03:06:40.920Z,420.00
2024-03-16T03:07:36.842Z,421.00
2024-03-16T03:08:32.043Z,417.00
2024-03-16T03:09:27.541Z,418.00
2024-03-16T03:10:23.156Z,422.00
2024-03-16T03:11:18.189Z,420.00
2024-03-16T03:12:13.669Z,413.00
2024-03-16T03:13:09.651Z,412.00
2024-03-16T03:14:04.985Z,408.00
2024-03-16T03:15:00.877Z,419.00
2024-03-16T03:15:55.991Z,415.00
2024-03-16T03:16:51.206Z,421.00
2024-03-16T03:17:47.022Z,416.00
2024-03-16T03:18:42.311Z,421.00
2024-03-16T03:19:37.325Z,415.00
2024-03-16T03:20:32.451Z,412.00
2024-03-16T03:21:27.612Z,414.00
2024-03-16T03:22:23.011Z,417.00
2024-03-16T03:23:18.392Z,418.00
2024-03-16T03:24:13.660Z,417.00
2024-03-16T03:25:09.695Z,416.00
2024-03-16T03:26:05.127Z,416.00
2024-03-16T03:27:00.654Z,421.00
2024-03-16T03:27:55.649Z,410.00
2024-03-16T03:28:50.781Z,416.00
2024-03-16T03:29:45.925Z,408.00
2024-03-16T03:30:41.650Z,410.00
2024-03-16T03:31:35.989Z,418.00
2024-03-16T03:32:31.081Z,415.00
2024-03-16T03:33:26.139Z,415.00
2024-03-16T03:34:21.143Z,417.00
2024-03-16T03:35:16.276Z,420.00
2024-03-16T03:36:11.192Z,415.00
2024-03-16T03:37:06.159Z,413.00
2024-03-16T03:38:01.312Z,413.00
2024-03-16T03:38:56.356Z,416.00
2024-03-16T03:39:51.456Z,412.00
2024-03-16T03:40:46.470Z,418.00
2024-03-16T03:41:42.147Z,416.00
2024-03-16T03:42:36.698Z,419.00
2024-03-16T03:43:31.837Z,419.00
2024-03-16T03:44:26.771Z,416.00
2024-03-16T03:45:22.876Z,416.00
2024-03-16T03:46:16.874Z,413.00
2024-03-16T03:47:12.001Z,409.00
2024-03-16T03:48:06.955Z,410.00
2024-03-16T03:49:02.129Z,420.00
2024-03-16T03:49:57.406Z,418.00
2024-03-16T03:50:52.438Z,413.00
2024-03-16T03:51:48.934Z,418.00
2024-03-16T03:52:44.230Z,420.00
2024-03-16T03:53:39.995Z,411.00
2024-03-16T03:54:35.339Z,419.00
2024-03-16T03:55:30.586Z,414.00
2024-03-16T03:56:26.243Z,418.00
2024-03-16T03:57:21.373Z,412.00
2024-03-16T03:58:17.301Z,417.00
2024-03-16T03:59:12.275Z,410.00
2024-03-16T04:00:07.602Z,416.00
2024-03-16T04:01:03.543Z,419.00
2024-03-16T04:01:58.866Z,415.00
2024-03-16T04:02:53.941Z,412.00
2024-03-16T04:03:50.526Z,414.00
2024-03-16T04:04:45.797Z,411.00
2024-03-16T04:05:41.600Z,412.00
2024-03-16T04:06:36.952Z,410.00
2024-03-16T04:07:31.983Z,417.00
2024-03-16T04:08:27.970Z,413.00
2024-03-16T04:09:23.157Z,412.00
2024-03-16T04:10:19.080Z,411.00
2024-03-16T04:11:14.197Z,410.00
2024-03-16T04:12:09.601Z,412.00
2024-03-16T04:13:05.116Z,428.00
2024-03-16T04:14:00.366Z,418.00
2024-03-16T04:14:55.568Z,419.00
2024-03-16T04:15:51.922Z,408.00
2024-03-16T04:16:47.116Z,416.00
2024-03-16T04:17:42.932Z,417.00
2024-03-16T04:18:38.114Z,409.00
2024-03-16T04:19:33.782Z,408.00
2024-03-16T04:20:29.193Z,416.00
2024-03-16T04:21:24.327Z,419.00
2024-03-16T04:22:20.214Z,420.00
2024-03-16T04:23:15.241Z,411.00
2024-03-16T04:24:10.561Z,413.00
2024-03-16T04:25:06.469Z,413.00
2024-03-16T04:26:01.510Z,414.00
2024-03-16T04:26:56.705Z,416.00
2024-03-16T04:27:53.082Z,420.00
2024-03-16T04:28:48.127Z,415.00
2024-03-16T04:29:44.234Z,417.00
2024-03-16T04:30:39.471Z,416.00
2024-03-16T04:31:35.093Z,412.00
2024-03-16T04:32:30.658Z,423.00
2024-03-16T04:33:25.748Z,420.00
2024-03-16T04:34:21.606Z,418.00
2024-03-16T04:35:16.785Z,419.00
2024-03-16T04:36:12.131Z,423.00
2024-03-16T04:37:08.143Z,418.00
2024-03-16T04:38:03.164Z,423.00
2024-03-16T04:38:58.447Z,412.00
2024-03-16T04:39:54.619Z,414.00
2024-03-16T04:40:50.632Z,413.00
2024-03-16T04:41:45.489Z,421.00
2024-03-16T04:42:40.848Z,417.00
2024-03-16T04:43:36.223Z,417.00
2024-03-16T04:44:31.809Z,416.00
2024-03-16T04:45:27.213Z,417.00
2024-03-16T04:46:23.482Z,420.00
2024-03-16T04:47:18.044Z,419.00
2024-03-16T04:48:13.261Z,417.00
2024-03-16T04:49:09.587Z,418.00
2024-03-16T04:50:04.789Z,418.00
2024-03-16T04:50:59.917Z,418.00
2024-03-16T04:51:55.260Z,423.00
2024-03-16T04:52:51.032Z,419.00
2024-03-16T04:53:46.492Z,418.00
2024-03-16T04:54:41.770Z,421.00
2024-03-16T04:55:37.695Z,409.00
2024-03-16T04:56:32.801Z,415.00
2024-03-16T04:57:28.573Z,413.00
2024-03-16T04:58:23.726Z,414.00
2024-03-16T04:59:18.879Z,419.00
2024-03-16T05:00:14.738Z,422.00
2024-03-16T05:01:09.800Z,423.00
2024-03-16T05:02:05.017Z,422.00
2024-03-16T05:03:01.120Z,420.00
2024-03-16T05:03:56.445Z,413.00
2024-03-16T05:04:52.294Z,417.00
2024-03-16T05:05:47.466Z,419.00
2024-03-16T05:06:42.594Z,415.00
2024-03-16T05:07:38.273Z,415.00
2024-03-16T05:08:33.567Z,420.00
2024-03-16T05:09:28.723Z,417.00
2024-03-16T05:10:23.801Z,424.00
2024-03-16T05:11:18.891Z,418.00
2024-03-16T05:12:14.045Z,421.00
2024-03-16T05:13:09.307Z,419.00
2024-03-16T05:14:12.111Z,418.00
2024-03-16T05:15:00.722Z,419.00
2024-03-16T05:15:56.121Z,415.00
2024-03-16T05:16:51.868Z,421.00
2024-03-16T05:17:47.008Z,417.00
2024-03-16T05:18:43.292Z,416.00
2024-03-16T05:19:37.574Z,421.00
2024-03-16T05:20:32.704Z,421.00
2024-03-16T05:21:27.974Z,425.00
2024-03-16T05:22:24.136Z,424.00
2024-03-16T05:23:19.363Z,419.00
2024-03-16T05:24:14.591Z,414.00
2024-03-16T05:25:14.160Z,417.00
2024-03-16T05:26:09.228Z,420.00
2024-03-16T05:27:04.628Z,418.00
2024-03-16T05:27:59.666Z,417.00
2024-03-16T05:28:54.664Z,423.00
2024-03-16T05:29:49.632Z,421.00
2024-03-16T05:30:44.768Z,415.00
2024-03-16T05:31:40.157Z,415.00
2024-03-16T05:32:35.188Z,415.00
2024-03-16T05:33:30.492Z,416.00
2024-03-16T05:34:25.656Z,417.00
2024-03-16T05:35:20.692Z,416.00
2024-03-16T05:36:15.943Z,419.00
2024-03-16T05:37:11.339Z,415.00
2024-03-16T05:38:06.177Z,417.00
2024-03-16T05:39:01.170Z,422.00
2024-03-16T05:39:56.242Z,424.00
2024-03-16T05:40:51.180Z,422.00
2024-03-16T05:41:46.218Z,426.00
2024-03-16T05:42:41.498Z,423.00
2024-03-16T05:43:36.342Z,423.00
2024-03-16T05:44:31.438Z,418.00
2024-03-16T05:45:26.730Z,421.00
2024-03-16T05:46:22.118Z,421.00
2024-03-16T05:47:17.364Z,425.00
2024-03-16T05:48:12.571Z,418.00
2024-03-16T05:49:07.814Z,420.00
2024-03-16T05:50:03.117Z,418.00
2024-03-16T05:50:58.423Z,420.00
2024-03-16T05:51:54.245Z,428.00
2024-03-16T05:52:48.996Z,418.00
2024-03-16T05:53:44.299Z,417.00
2024-03-16T05:54:39.538Z,417.00
2024-03-16T05:55:34.862Z,426.00
2024-03-16T05:56:30.094Z,420.00
2024-03-16T05:57:25.346Z,418.00
2024-03-16T05:58:20.259Z,421.00
2024-03-16T05:59:15.278Z,412.00
2024-03-16T06:00:10.337Z,423.00
2024-03-16T06:01:05.791Z,424.00
2024-03-16T06:02:00.394Z,421.00
2024-03-16T06:02:55.440Z,417.00
2024-03-16T06:03:50.457Z,423.00
2024-03-16T06:04:45.551Z,422.00
2024-03-16T06:05:40.512Z,425.00
2024-03-16T06:06:35.673Z,421.00
2024-03-16T06:07:30.586Z,417.00
2024-03-16T06:08:25.621Z,424.00
2024-03-16T06:09:20.605Z,418.00
2024-03-16T06:10:15.698Z,423.00
2024-03-16T06:11:10.678Z,425.00
2024-03-16T06:12:05.840Z,422.00
2024-03-16T06:13:00.924Z,420.00
2024-03-16T06:13:56.180Z,420.00
2024-03-16T06:14:51.243Z,424.00
2024-03-16T06:15:46.414Z,422.00
2024-03-16T06:16:42.204Z,423.00
2024-03-16T06:17:37.198Z,418.00
2024-03-16T06:18:31.575Z,420.00
2024-03-16T06:19:26.663Z,421.00
2024-03-16T06:20:25.012Z,422.00
2024-03-16T06:21:17.437Z,420.00
2024-03-16T06:22:12.073Z,422.00
2024-03-16T06:23:06.923Z,423.00
2024-03-16T06:24:01.902Z,420.00
2024-03-16T06:24:57.052Z,416.00
2024-03-16T06:25:51.954Z,421.00
2024-03-16T06:26:47.183Z,419.00
2024-03-16T06:27:42.521Z,422.00
2024-03-16T06:28:37.642Z,419.00
2024-03-16T06:29:36.833Z,423.00
2024-03-16T06:30:32.258Z,417.00
2024-03-16T06:31:27.449Z,424.00
2024-03-16T06:32:23.061Z,419.00
2024-03-16T06:33:18.302Z,424.00
2024-03-16T06:34:18.528Z,422.00
2024-03-16T06:35:12.920Z,418.00
2024-03-16T06:36:08.314Z,419.00
2024-03-16T06:37:03.614Z,421.00
2024-03-16T06:37:59.134Z,428.00
2024-03-16T06:38:54.307Z,418.00
2024-03-16T06:39:49.857Z,414.00
2024-03-16T06:40:45.097Z,424.00
2024-03-16T06:41:40.551Z,432.00
2024-03-16T06:42:35.737Z,417.00
2024-03-16T06:43:31.019Z,428.00
2024-03-16T06:44:26.559Z,428.00
2024-03-16T06:45:21.779Z,415.00
2024-03-16T06:46:16.993Z,415.00
2024-03-16T06:47:12.361Z,426.00
2024-03-16T06:48:07.632Z,420.00
2024-03-16T06:49:02.788Z,424.00
2024-03-16T06:49:58.021Z,417.00
2024-03-16T06:50:53.451Z,418.00
2024-03-16T06:51:49.000Z,421.00
2024-03-16T06:52:44.785Z,417.00
2024-03-16T06:53:39.653Z,419.00
2024-03-16T06:54:35.073Z,420.00
2024-03-16T06:55:30.392Z,419.00
2024-03-16T06:56:25.723Z,418.00
2024-03-16T06:57:22.260Z,422.00
2024-03-16T06:58:17.556Z,418.00
2024-03-16T06:59:12.875Z,426.00
2024-03-16T07:00:08.161Z,417.00
2024-03-16T07:01:03.649Z,425.00
2024-03-16T07:01:59.069Z,420.00
2024-03-16T07:02:54.290Z,420.00
2024-03-16T07:03:49.716Z,420.00
2024-03-16T07:04:45.086Z,427.00
2024-03-16T07:05:40.513Z,425.00
2024-03-16T07:06:35.681Z,419.00
2024-03-16T07:07:30.783Z,424.00
2024-03-16T07:08:25.761Z,417.00
2024-03-16T07:09:20.826Z,418.00
2024-03-16T07:10:17.636Z,430.00
2024-03-16T07:11:12.664Z,422.00
2024-03-16T07:12:07.677Z,420.00
2024-03-16T07:13:02.740Z,422.00
2024-03-16T07:13:57.713Z,424.00
2024-03-16T07:14:52.833Z,420.00
2024-03-16T07:15:47.871Z,419.00
2024-03-16T07:16:43.084Z,419.00
2024-03-16T07:17:37.978Z,426.00
2024-03-16T07:18:32.984Z,421.00
2024-03-16T07:19:27.991Z,425.00
2024-03-16T07:20:23.038Z,423.00
2024-03-16T07:21:18.070Z,428.00
2024-03-16T07:22:13.393Z,424.00
2024-03-16T07:23:08.307Z,420.00
2024-03-16T07:24:03.402Z,424.00
2024-03-16T07:24:58.415Z,423.00
2024-03-16T07:25:53.491Z,421.00
2024-03-16T07:26:48.453Z,417.00
2024-03-16T07:27:43.515Z,423.00
2024-03-16T07:28:38.809Z,421.00
2024-03-16T07:29:34.271Z,422.00
2024-03-16T07:30:29.723Z,420.00
2024-03-16T07:31:24.994Z,419.00
2024-03-16T07:32:20.433Z,420.00
2024-03-16T07:33:15.725Z,423.00
2024-03-16T07:34:11.049Z,416.00
2024-03-16T07:35:06.454Z,420.00
2024-03-16T07:36:01.750Z,420.00
2024-03-16T07:36:57.234Z,424.00
2024-03-16T07:37:52.420Z,428.00
2024-03-16T07:38:47.875Z,422.00
2024-03-16T07:39:42.997Z,422.00
2024-03-16T07:40:38.682Z,421.00
2024-03-16T07:41:33.818Z,426.00
2024-03-16T07:42:29.293Z,420.00
2024-03-16T07:43:24.657Z,420.00
2024-03-16T07:44:19.879Z,423.00
2024-03-16T07:45:15.419Z,424.00
2024-03-16T07:46:11.592Z,416.00
2024-03-16T07:47:06.229Z,425.00
2024-03-16T07:48:01.766Z,423.00
2024-03-16T07:48:57.669Z,426.00
2024-03-16T07:49:52.303Z,424.00
2024-03-16T07:50:47.828Z,417.00
2024-03-16T07:51:43.830Z,418.00
2024-03-16T07:52:38.478Z,418.00
2024-03-16T07:53:33.748Z,414.00
2024-03-16T07:54:29.123Z,419.00
2024-03-16T07:55:24.303Z,418.00
2024-03-16T07:56:19.754Z,417.00
2024-03-16T07:57:15.159Z,422.00
2024-03-16T07:58:10.395Z,420.00
2024-03-16T07:59:05.866Z,416.00
2024-03-16T08:00:01.180Z,417.00
2024-03-16T08:00:56.664Z,415.00
2024-03-16T08:01:51.597Z,416.00
2024-03-16T08:02:46.721Z,416.00
2024-03-16T08:03:41.671Z,415.00
2024-03-16T08:04:36.738Z,416.00
2024-03-16T08:05:31.804Z,415.00
2024-03-16T08:06:27.529Z,415.00
2024-03-16T08:07:22.029Z,415.00
2024-03-16T08:08:17.394Z,423.00
2024-03-16T08:09:12.294Z,412.00
2024-03-16T08:10:07.480Z,417.00
2024-03-16T08:11:02.477Z,416.00
2024-03-16T08:11:57.508Z,420.00
2024-03-16T08:12:52.631Z,415.00
2024-03-16T08:13:48.092Z,419.00
2024-03-16T08:14:43.542Z,418.00
2024-03-16T08:15:39.042Z,416.00
2024-03-16T08:16:34.395Z,418.00
2024-03-16T08:17:30.817Z,425.00
2024-03-16T08:18:25.529Z,423.00
2024-03-16T08:19:20.842Z,419.00
2024-03-16T08:20:17.863Z,424.00
2024-03-16T08:21:11.665Z,424.00
2024-03-16T08:22:07.009Z,419.00
2024-03-16T08:23:03.074Z,419.00
2024-03-16T08:23:57.885Z,424.00
2024-03-16T08:24:53.293Z,422.00
2024-03-16T08:25:48.301Z,440.00
2024-03-16T08:26:43.377Z,440.00
2024-03-16T08:27:38.567Z,436.00
2024-03-16T08:28:33.746Z,438.00
2024-03-16T08:29:28.600Z,442.00
2024-03-16T08:30:23.670Z,437.00
2024-03-16T08:31:18.754Z,442.00
2024-03-16T08:32:13.860Z,442.00
2024-03-16T08:33:09.130Z,442.00
2024-03-16T08:34:04.081Z,439.00
2024-03-16T08:34:58.980Z,443.00
2024-03-16T08:35:54.048Z,440.00
2024-03-16T08:36:49.042Z,437.00
2024-03-16T08:37:44.059Z,441.00
2024-03-16T08:38:40.452Z,438.00
2024-03-16T08:39:35.352Z,437.00
2024-03-16T08:40:30.654Z,443.00
2024-03-16T08:41:25.629Z,442.00
2024-03-16T08:42:20.592Z,440.00
2024-03-16T08:43:15.642Z,437.00
2024-03-16T08:44:10.770Z,440.00
2024-03-16T08:45:05.748Z,437.00
2024-03-16T08:46:00.902Z,450.00
2024-03-16T08:46:55.777Z,442.00
2024-03-16T08:47:50.792Z,445.00
2024-03-16T08:48:46.922Z,442.00
2024-03-16T08:49:42.215Z,439.00
2024-03-16T08:50:37.841Z,437.00
2024-03-16T08:51:33.442Z,443.00
2024-03-16T08:52:28.949Z,439.00
2024-03-16T08:53:24.289Z,442.00
2024-03-16T08:54:19.653Z,441.00
2024-03-16T08:55:15.132Z,440.00
2024-03-16T08:56:10.358Z,433.00
2024-03-16T08:57:05.696Z,437.00
2024-03-16T08:58:01.310Z,438.00
2024-03-16T08:58:56.965Z,440.00
2024-03-16T08:59:52.109Z,439.00
2024-03-16T09:00:47.563Z,444.00
2024-03-16T09:01:44.341Z,439.00
2024-03-16T09:02:39.632Z,433.00
2024-03-16T09:03:35.257Z,444.00
2024-03-16T09:04:30.609Z,441.00
2024-03-16T09:05:26.035Z,442.00
2024-03-16T09:06:21.456Z,451.00
2024-03-16T09:07:16.683Z,436.00
2024-03-16T09:08:11.671Z,441.00
2024-03-16T09:09:06.955Z,435.00
2024-03-16T09:10:01.760Z,441.00
2024-03-16T09:10:56.848Z,439.00
2024-03-16T09:11:51.846Z,439.00
2024-03-16T09:12:46.888Z,438.00
2024-03-16T09:13:41.997Z,439.00
2024-03-16T09:14:36.872Z,438.00
2024-03-16T09:15:31.923Z,442.00
2024-03-16T09:16:26.990Z,439.00
2024-03-16T09:17:21.943Z,443.00
2024-03-16T09:18:17.066Z,439.00
2024-03-16T09:19:12.294Z,443.00
2024-03-16T09:20:07.192Z,439.00
2024-03-16T09:21:02.256Z,438.00
2024-03-16T09:21:57.395Z,443.00
2024-03-16T09:22:52.769Z,440.00
2024-03-16T09:25:16.660Z,429.00
2024-03-16T09:26:10.902Z,435.00
2024-03-16T09:27:09.294Z,429.00
2024-03-16T09:28:01.828Z,436.00
2024-03-16T09:28:57.245Z,427.00
2024-03-16T09:29:52.628Z,434.00
2024-03-16T09:30:48.263Z,429.00
2024-03-16T09:31:43.622Z,431.00
2024-03-16T09:32:39.064Z,435.00
2024-03-16T09:33:34.823Z,431.00
2024-03-16T09:34:30.475Z,437.00
2024-03-16T09:35:25.682Z,429.00
2024-03-16T09:36:20.904Z,430.00
2024-03-16T09:37:16.539Z,430.00
2024-03-16T09:38:12.140Z,451.00
2024-03-16T09:39:07.306Z,451.00
2024-03-16T09:40:03.068Z,457.00
2024-03-16T09:40:58.804Z,450.00
2024-03-16T09:41:54.117Z,463.00
2024-03-16T09:42:49.716Z,447.00
2024-03-16T09:43:45.428Z,452.00
2024-03-16T09:44:40.465Z,448.00
2024-03-16T09:45:36.061Z,447.00
2024-03-16T09:46:31.597Z,468.00
2024-03-16T09:47:27.136Z,469.00
2024-03-16T09:48:25.396Z,477.00
2024-03-16T09:49:18.278Z,478.00
2024-03-16T09:50:13.708Z,475.00
2024-03-16T09:51:09.284Z,468.00
2024-03-16T09:52:04.750Z,468.00
2024-03-16T09:53:00.475Z,468.00
2024-03-16T09:53:56.013Z,472.00
2024-03-16T09:54:51.519Z,472.00
2024-03-16T09:55:47.012Z,470.00
2024-03-16T09:56:42.592Z,472.00
2024-03-16T09:57:37.955Z,471.00
2024-03-16T09:58:33.758Z,464.00
2024-03-16T09:59:31.093Z,469.00
2024-03-16T10:00:24.608Z,464.00
2024-03-16T10:01:19.961Z,466.00
2024-03-16T10:02:15.360Z,471.00
2024-03-16T10:03:10.890Z,465.00
2024-03-16T10:04:06.557Z,462.00
2024-03-16T10:05:01.971Z,465.00
2024-03-16T10:05:57.506Z,469.00
2024-03-16T10:06:52.990Z,475.00
2024-03-16T10:07:48.452Z,474.00
2024-03-16T10:08:43.829Z,470.00
2024-03-16T10:09:39.190Z,478.00
2024-03-16T10:10:34.482Z,469.00
2024-03-16T10:11:30.191Z,475.00
2024-03-16T10:12:25.481Z,468.00
2024-03-16T10:13:21.082Z,466.00
2024-03-16T10:14:16.440Z,481.00
2024-03-16T10:15:11.926Z,463.00
2024-03-16T10:16:07.423Z,457.00
2024-03-16T10:17:02.785Z,461.00
2024-03-16T10:17:58.230Z,458.00
2024-03-16T10:18:53.707Z,461.00
2024-03-16T10:19:49.260Z,460.00
2024-03-16T10:20:44.888Z,460.00
2024-03-16T10:21:40.277Z,457.00
2024-03-16T10:22:35.665Z,457.00
2024-03-16T10:23:31.318Z,461.00
2024-03-16T10:24:27.099Z,462.00
2024-03-16T10:25:22.400Z,461.00
2024-03-16T10:26:18.533Z,456.00
2024-03-16T10:27:13.366Z,453.00
2024-03-16T10:28:09.014Z,455.00
2024-03-16T10:29:04.540Z,456.00
2024-03-16T10:29:59.821Z,459.00
2024-03-16T10:30:55.465Z,465.00
2024-03-16T10:31:54.985Z,460.00
2024-03-16T10:32:46.565Z,461.00
2024-03-16T10:33:41.946Z,455.00
2024-03-16T10:34:37.348Z,450.00
2024-03-16T10:35:32.706Z,453.00
2024-03-16T10:36:28.165Z,450.00
2024-03-16T10:37:23.554Z,455.00
2024-03-16T10:38:19.038Z,456.00
2024-03-16T10:39:14.709Z,451.00
2024-03-16T10:40:10.147Z,456.00
2024-03-16T10:41:05.572Z,458.00
2024-03-16T10:42:01.180Z,456.00
2024-03-16T10:42:56.741Z,462.00
2024-03-16T10:43:52.134Z,454.00
2024-03-16T10:44:47.802Z,459.00
2024-03-16T10:45:43.211Z,456.00
2024-03-16T10:46:38.613Z,457.00
2024-03-16T10:47:33.957Z,451.00
2024-03-16T10:48:29.624Z,455.00
2024-03-16T10:49:25.063Z,460.00
2024-03-16T10:50:20.743Z,462.00
2024-03-16T10:51:16.189Z,460.00
2024-03-16T10:52:12.158Z,459.00
2024-03-16T10:53:06.835Z,457.00
2024-03-16T10:54:02.188Z,461.00
2024-03-16T10:54:57.833Z,463.00
2024-03-16T10:55:53.209Z,465.00
2024-03-16T10:56:49.200Z,465.00
2024-03-16T10:57:44.797Z,465.00
2024-03-16T10:58:39.685Z,465.00
2024-03-16T10:59:34.965Z,462.00
2024-03-16T11:00:30.622Z,461.00
2024-03-16T11:01:25.798Z,463.00
2024-03-16T11:02:21.332Z,464.00
2024-03-16T11:03:16.694Z,464.00
2024-03-16T11:04:12.097Z,464.00
2024-03-16T11:05:07.533Z,460.00
2024-03-16T11:06:02.878Z,469.00
2024-03-16T11:06:58.389Z,464.00
2024-03-16T11:07:53.871Z,465.00
2024-03-16T11:08:49.386Z,463.00
2024-03-16T11:09:44.676Z,467.00
2024-03-16T11:10:40.397Z,464.00
2024-03-16T11:11:35.596Z,473.00
2024-03-16T11:12:31.061Z,465.00
2024-03-16T11:13:26.437Z,462.00
2024-03-16T11:14:22.026Z,463.00
2024-03-16T11:15:17.601Z,469.00
2024-03-16T11:16:13.010Z,462.00
2024-03-16T11:17:08.490Z,463.00
2024-03-16T11:18:04.104Z,464.00
2024-03-16T11:18:59.532Z,461.00
2024-03-16T11:19:57.388Z,460.00
2024-03-16T11:20:50.743Z,455.00
2024-03-16T11:21:46.139Z,460.00
2024-03-16T11:22:41.660Z,456.00
2024-03-16T11:23:37.024Z,468.00
2024-03-16T11:24:32.472Z,458.00
2024-03-16T11:25:28.046Z,458.00
2024-03-16T11:26:23.213Z,459.00
2024-03-16T11:27:18.705Z,454.00
2024-03-16T11:28:14.790Z,457.00
2024-03-16T11:29:09.666Z,463.00
2024-03-16T11:30:05.534Z,457.00
2024-03-16T11:31:00.597Z,455.00
2024-03-16T11:31:55.910Z,455.00